createdAt,value
2019-04-10T00:01:19.640Z,1.90
2019-04-10T00:03:50.429Z,1.80
2019-04-10T00:06:21.652Z,1.80
2019-04-10T00:08:52.813Z,1.80
2019-04-10T00:11:23.454Z,1.90
2019-04-10T00:13:53.948Z,1.90
2019-04-10T00:16:24.581Z,1.90
2019-04-10T00:18:56.138Z,2.00
2019-04-10T00:21:26.634Z,2.00
2019-04-10T00:23:57.691Z,2.00
2019-04-10T00:26:28.380Z,2.00
2019-04-10T00:29:00.140Z,2.00
2019-04-10T00:31:31.822Z,2.10
2019-04-10T00:34:03.232Z,2.00
2019-04-10T00:36:35.177Z,2.00
2019-04-10T00:39:08.621Z,2.00
2019-04-10T00:41:39.262Z,2.00
2019-04-10T00:44:11.099Z,1.90
2019-04-10T00:46:42.124Z,1.90
2019-04-10T00:49:13.470Z,1.90
2019-04-10T00:51:44.417Z,2.00
2019-04-10T00:54:14.819Z,1.90
2019-04-10T00:56:45.780Z,1.90
2019-04-10T00:59:17.738Z,1.80
2019-04-10T01:01:52.183Z,1.80
2019-04-10T01:04:24.442Z,1.90
2019-04-10T01:06:56.616Z,1.90
2019-04-10T01:09:27.252Z,1.90
2019-04-10T01:11:57.753Z,2.00
2019-04-10T01:14:28.235Z,2.00
2019-04-10T01:17:02.035Z,2.00
2019-04-10T01:19:32.890Z,2.00
2019-04-10T01:22:03.810Z,1.90
2019-04-10T01:24:35.484Z,1.90
2019-04-10T01:27:07.632Z,1.90
2019-04-10T01:29:39.867Z,1.90
2019-04-10T01:32:12.011Z,1.90
2019-04-10T01:34:44.017Z,1.90
2019-04-10T01:37:14.525Z,1.90
2019-04-10T01:39:45.023Z,1.80
2019-04-10T01:42:16.554Z,1.80
2019-04-10T01:44:48.961Z,1.80
2019-04-10T01:47:19.663Z,1.70
2019-04-10T01:49:50.325Z,1.70
2019-04-10T01:52:21.204Z,1.70
2019-04-10T01:54:51.704Z,1.70
2019-04-10T01:57:22.326Z,1.70
2019-04-10T01:59:54.186Z,1.70
2019-04-10T02:02:53.965Z,1.60
2019-04-10T02:05:25.050Z,1.60
2019-04-10T02:08:05.329Z,1.60
2019-04-10T02:10:29.071Z,1.60
2019-04-10T02:13:01.085Z,1.60
2019-04-10T02:15:32.410Z,1.50
2019-04-10T02:18:03.282Z,1.50
2019-04-10T02:20:34.700Z,1.50
2019-04-10T02:23:05.857Z,1.50
2019-04-10T02:25:37.674Z,1.40
2019-04-10T02:28:09.098Z,1.30
2019-04-10T02:30:41.344Z,1.30
2019-04-10T02:33:13.788Z,1.20
2019-04-10T02:35:45.459Z,1.20
2019-04-10T02:38:30.589Z,1.10
2019-04-10T02:40:49.855Z,1.10
2019-04-10T02:43:21.120Z,1.10
2019-04-10T02:45:51.928Z,1.00
2019-04-10T02:48:23.458Z,1.00
2019-04-10T02:50:55.535Z,1.00
2019-04-10T02:53:27.641Z,0.90
2019-04-10T02:56:00.320Z,0.90
2019-04-10T02:58:32.254Z,0.80
2019-04-10T03:01:03.240Z,0.80
2019-04-10T03:03:38.397Z,0.80
2019-04-10T03:06:09.281Z,0.70
2019-04-10T03:08:54.983Z,0.60
2019-04-10T03:11:12.674Z,0.60
2019-04-10T03:13:45.217Z,0.60
2019-04-10T03:16:15.963Z,0.50
2019-04-10T03:18:47.294Z,0.50
2019-04-10T03:21:18.645Z,0.40
2019-04-10T03:23:49.567Z,0.40
2019-04-10T03:26:21.331Z,0.30
2019-04-10T03:28:53.465Z,0.30
2019-04-10T03:31:25.280Z,0.20
2019-04-10T03:34:05.510Z,0.20
2019-04-10T03:36:40.080Z,0.10
2019-04-10T03:39:11.767Z,0.10
2019-04-10T03:41:42.815Z,0.10
2019-04-10T03:44:14.429Z,0.00
2019-04-10T03:46:45.123Z,0.00
2019-04-10T03:49:17.833Z,0.00
2019-04-10T03:51:49.194Z,-0.10
2019-04-10T03:54:20.890Z,-0.10
2019-04-10T03:56:52.315Z,-0.10
2019-04-10T03:59:24.346Z,-0.20
2019-04-10T04:01:55.585Z,-0.20
2019-04-10T04:04:26.367Z,-0.30
2019-04-10T04:06:57.808Z,-0.30
2019-04-10T04:09:31.169Z,-0.40
2019-04-10T04:12:08.437Z,-0.40
2019-04-10T04:21:11.733Z,-0.50
2019-04-10T04:24:14.359Z,-0.60
2019-04-10T04:26:57.693Z,-0.70
2019-04-10T04:29:39.891Z,-0.70
2019-04-10T04:32:23.751Z,-0.80
2019-04-10T04:35:05.907Z,-0.80
2019-04-10T04:37:48.978Z,-0.70
2019-04-10T04:40:31.202Z,-0.70
2019-04-10T04:43:12.987Z,-0.60
2019-04-10T04:45:55.475Z,-0.60
2019-04-10T04:48:38.312Z,-0.50
2019-04-10T04:51:21.876Z,-0.50
2019-04-10T04:54:04.623Z,-0.40
2019-04-10T04:56:47.065Z,-0.30
2019-04-10T04:59:28.976Z,-0.30
2019-04-10T05:02:12.213Z,-0.20
2019-04-10T05:07:35.484Z,-0.10
2019-04-10T05:10:17.831Z,-0.10
2019-04-10T05:13:00.259Z,0.00
2019-04-10T05:15:42.807Z,0.00
2019-04-10T05:18:25.428Z,0.10
2019-04-10T05:20:56.751Z,0.20
2019-04-10T05:23:27.223Z,0.30
2019-04-10T05:25:59.075Z,0.40
2019-04-10T05:31:51.020Z,0.70
2019-04-10T05:34:33.942Z,0.80
2019-04-10T05:37:16.710Z,1.00
2019-04-10T05:39:59.332Z,1.20
2019-04-10T06:06:38.803Z,1.90
2019-04-10T06:09:21.331Z,2.00
2019-04-10T06:12:04.064Z,2.10
2019-04-10T06:18:27.141Z,2.20
2019-04-10T06:21:10.502Z,2.30
2019-04-10T06:23:53.920Z,2.40
2019-04-10T06:26:43.736Z,2.60
2019-04-10T06:33:05.972Z,2.90
2019-04-10T06:35:48.871Z,3.10
2019-04-10T06:38:31.742Z,3.30
2019-04-10T06:41:16.031Z,3.50
2019-04-10T06:43:57.289Z,3.80
2019-04-10T06:46:40.424Z,3.90
2019-04-10T06:49:24.580Z,4.10
2019-04-10T06:52:08.074Z,4.20
2019-04-10T06:54:51.114Z,4.40
2019-04-10T06:57:46.882Z,4.60
2019-04-10T07:00:19.758Z,4.70
2019-04-10T07:03:03.100Z,4.90
2019-04-10T07:06:00.563Z,5.00
2019-04-10T07:08:29.766Z,5.20
2019-04-10T07:11:13.546Z,5.50
2019-04-10T07:13:57.373Z,5.60
2019-04-10T07:16:40.246Z,5.60
2019-04-10T07:19:24.071Z,5.80
2019-04-10T07:22:11.941Z,5.90
2019-04-10T07:24:52.294Z,6.00
2019-04-10T07:27:38.223Z,6.10
2019-04-10T07:30:19.527Z,6.00
2019-04-10T07:33:01.874Z,5.90
2019-04-10T07:35:44.875Z,5.70
2019-04-10T07:38:26.992Z,5.50
2019-04-10T07:41:14.369Z,5.50
2019-04-10T07:43:55.448Z,5.70
2019-04-10T07:46:38.104Z,6.00
2019-04-10T07:49:22.101Z,6.40
2019-04-10T07:52:04.886Z,6.70
2019-04-10T07:54:48.184Z,7.00
2019-04-10T07:57:30.759Z,7.20
2019-04-10T08:03:53.934Z,7.90
2019-04-10T08:06:35.773Z,8.10
2019-04-10T08:09:18.896Z,8.20
2019-04-10T08:12:00.629Z,8.30
2019-04-10T08:14:42.723Z,8.20
2019-04-10T08:17:24.614Z,8.10
2019-04-10T08:20:07.803Z,7.90
2019-04-10T08:22:51.185Z,7.60
2019-04-10T08:28:47.502Z,7.10
2019-04-10T08:31:30.793Z,6.90
2019-04-10T08:34:42.070Z,6.80
2019-04-10T08:37:24.825Z,6.70
2019-04-10T08:40:07.607Z,6.50
2019-04-10T08:42:51.237Z,6.50
2019-04-10T08:45:40.554Z,6.30
2019-04-10T08:48:17.720Z,6.30
2019-04-10T08:54:10.723Z,6.20
2019-04-10T08:56:52.807Z,6.10
2019-04-10T09:02:14.755Z,6.00
2019-04-10T09:04:57.342Z,6.10
2019-04-10T09:07:40.071Z,6.10
2019-04-10T09:10:22.839Z,5.90
2019-04-10T09:13:04.939Z,5.90
2019-04-10T09:15:47.908Z,5.80
2019-04-10T09:18:30.020Z,5.90
2019-04-10T09:21:13.242Z,5.90
2019-04-10T09:23:57.588Z,6.00
2019-04-10T09:26:40.283Z,5.90
2019-04-10T09:29:24.265Z,5.80
2019-04-10T09:32:06.412Z,5.60
2019-04-10T09:34:49.870Z,5.50
2019-04-10T09:37:32.569Z,5.50
2019-04-10T09:40:16.283Z,5.50
2019-04-10T09:42:58.163Z,5.40
2019-04-10T09:45:43.730Z,5.30
2019-04-10T09:48:26.824Z,5.20
2019-04-10T09:51:09.826Z,5.20
2019-04-10T09:53:41.257Z,5.10
2019-04-10T09:59:46.990Z,5.00
2019-04-10T10:05:16.583Z,5.30
2019-04-10T10:07:58.343Z,5.40
2019-04-10T10:10:40.227Z,5.30
2019-04-10T10:13:23.532Z,5.30
2019-04-10T10:16:06.984Z,5.30
2019-04-10T10:18:49.900Z,5.30
2019-04-10T10:24:46.787Z,5.40
2019-04-10T10:27:30.128Z,5.40
2019-04-10T10:32:57.177Z,5.40
2019-04-10T10:38:27.368Z,5.00
2019-04-10T10:41:09.911Z,5.00
2019-04-10T10:43:52.893Z,5.10
2019-04-10T10:46:35.627Z,5.10
2019-04-10T10:49:24.351Z,5.10
2019-04-10T10:52:27.808Z,5.20
2019-04-10T10:55:09.903Z,5.20
2019-04-10T10:57:52.367Z,5.20
2019-04-10T11:00:35.589Z,5.30
2019-04-10T11:03:18.213Z,5.40
2019-04-10T11:06:00.764Z,5.40
2019-04-10T11:08:43.863Z,5.50
2019-04-10T11:11:26.761Z,5.40
2019-04-10T11:14:10.878Z,5.30
2019-04-10T11:16:53.701Z,5.40
2019-04-10T11:19:35.731Z,5.40
2019-04-10T11:25:02.213Z,5.40
2019-04-10T11:27:44.193Z,5.40
2019-04-10T11:30:49.152Z,5.40
2019-04-10T11:36:26.043Z,5.40
2019-04-10T11:39:16.734Z,5.40
2019-04-10T11:41:52.845Z,5.40
2019-04-10T11:44:36.767Z,5.50
2019-04-10T11:47:22.349Z,5.50
2019-04-10T11:50:06.757Z,5.50
2019-04-10T11:55:42.849Z,5.40
2019-04-10T11:58:17.920Z,5.40
2019-04-10T12:06:59.211Z,5.50
2019-04-10T12:12:23.769Z,5.70
2019-04-10T12:15:06.289Z,5.70
2019-04-10T12:17:49.771Z,5.70
2019-04-10T12:20:31.996Z,5.70
2019-04-10T12:23:14.107Z,5.80
2019-04-10T12:25:56.611Z,5.80
2019-04-10T12:28:40.302Z,5.90
2019-04-10T12:31:23.847Z,5.90
2019-04-10T12:34:06.561Z,5.90
2019-04-10T12:36:49.384Z,5.90
2019-04-10T12:39:32.234Z,5.90
2019-04-10T12:42:14.225Z,5.80
2019-04-10T12:44:57.713Z,5.90
2019-04-10T12:47:41.997Z,5.80
2019-04-10T12:50:24.741Z,5.80
2019-04-10T12:53:07.412Z,5.70
2019-04-10T12:55:49.838Z,5.60
2019-04-10T12:58:32.950Z,5.60
2019-04-10T13:01:16.318Z,5.60
2019-04-10T13:03:59.842Z,5.50
2019-04-10T13:06:42.706Z,5.40
2019-04-10T13:09:26.164Z,5.40
2019-04-10T13:12:09.072Z,5.30
2019-04-10T13:14:51.783Z,5.20
2019-04-10T13:17:35.014Z,5.10
2019-04-10T13:20:17.737Z,5.10
2019-04-10T13:23:00.316Z,5.30
2019-04-10T13:25:54.944Z,5.20
2019-04-10T13:28:27.616Z,5.30
2019-04-10T13:31:10.873Z,5.30
2019-04-10T13:33:53.876Z,5.20
2019-04-10T13:36:37.691Z,5.20
2019-04-10T13:39:20.425Z,5.30
2019-04-10T13:42:03.367Z,5.30
2019-04-10T13:44:46.745Z,5.20
2019-04-10T13:47:30.438Z,5.20
2019-04-10T13:50:12.915Z,5.30
2019-04-10T13:53:03.772Z,5.40
2019-04-10T14:05:22.708Z,5.60
2019-04-10T14:08:06.168Z,5.70
2019-04-10T14:10:48.891Z,5.70
2019-04-10T14:13:31.728Z,5.60
2019-04-10T14:16:14.792Z,5.60
2019-04-10T14:18:57.325Z,5.60
2019-04-10T14:21:40.840Z,5.60
2019-04-10T14:24:24.811Z,5.60
2019-04-10T14:33:28.290Z,5.60
2019-04-10T14:36:11.688Z,5.60
2019-04-10T14:38:55.110Z,5.60
2019-04-10T14:41:38.487Z,5.60
2019-04-10T14:44:20.802Z,5.60
2019-04-10T14:47:04.342Z,5.60
2019-04-10T14:49:46.848Z,5.50
2019-04-10T14:52:29.502Z,5.40
2019-04-10T14:55:12.468Z,5.30
2019-04-10T14:57:54.954Z,5.20
2019-04-10T15:00:41.134Z,5.10
2019-04-10T15:03:24.391Z,5.10
2019-04-10T15:05:57.033Z,5.10
2019-04-10T15:14:48.000Z,5.20
2019-04-10T15:17:30.876Z,5.20
2019-04-10T15:20:13.488Z,5.30
2019-04-10T15:22:55.959Z,5.20
2019-04-10T15:25:39.442Z,5.20
2019-04-10T15:28:21.267Z,5.10
2019-04-10T15:31:03.711Z,5.20
2019-04-10T15:33:46.601Z,5.20
2019-04-10T15:36:29.347Z,5.20
2019-04-10T15:39:12.723Z,5.20
2019-04-10T15:44:40.709Z,5.10
2019-04-10T15:47:23.515Z,5.10
2019-04-10T15:50:07.029Z,5.00
2019-04-10T15:52:51.456Z,5.00
2019-04-10T15:55:33.319Z,5.00
2019-04-10T15:58:15.922Z,5.00
2019-04-10T16:00:59.388Z,5.00
2019-04-10T16:06:31.792Z,4.90
2019-04-10T16:09:14.893Z,4.80
2019-04-10T16:18:33.055Z,4.60
2019-04-10T16:21:15.898Z,4.50
2019-04-10T16:23:51.778Z,4.50
2019-04-10T16:29:42.825Z,4.40
2019-04-10T16:32:26.645Z,4.40
2019-04-10T16:35:09.334Z,4.40
2019-04-10T16:37:51.848Z,4.30
2019-04-10T16:40:34.353Z,4.20
2019-04-10T16:49:57.223Z,4.20
2019-04-10T16:55:22.755Z,4.30
2019-04-10T16:58:09.523Z,4.40
2019-04-10T17:00:40.354Z,4.40
2019-04-10T17:06:28.061Z,4.40
2019-04-10T17:09:15.182Z,4.30
2019-04-10T17:11:47.543Z,4.30
2019-04-10T17:17:38.809Z,4.10
2019-04-10T17:20:22.415Z,4.00
2019-04-10T17:23:05.275Z,4.00
2019-04-10T17:25:48.733Z,4.00
2019-04-10T17:28:32.342Z,4.00
2019-04-10T17:31:14.500Z,3.90
2019-04-10T17:33:58.589Z,3.80
2019-04-10T17:36:41.313Z,3.70
2019-04-10T17:39:25.050Z,3.60
2019-04-10T17:42:08.101Z,3.50
2019-04-10T17:44:50.172Z,3.60
2019-04-10T17:47:33.412Z,3.70
2019-04-10T17:50:22.524Z,3.60
2019-04-10T17:53:25.407Z,3.50
2019-04-10T17:56:08.474Z,3.60
2019-04-10T17:58:51.972Z,3.60
2019-04-10T18:01:34.840Z,3.60
2019-04-10T18:04:17.904Z,3.60
2019-04-10T18:07:00.044Z,3.60
2019-04-10T18:09:43.061Z,3.50
2019-04-10T18:12:25.947Z,3.50
2019-04-10T18:15:08.207Z,3.60
2019-04-10T18:17:51.347Z,3.60
2019-04-10T18:23:13.413Z,3.70
2019-04-10T18:25:56.202Z,3.60
2019-04-10T18:28:38.802Z,3.60
2019-04-10T18:31:24.822Z,3.60
2019-04-10T18:34:31.592Z,3.70
2019-04-10T18:37:16.571Z,3.70
2019-04-10T18:39:59.006Z,3.70
2019-04-10T18:46:09.031Z,3.70
2019-04-10T18:52:00.599Z,3.70
2019-04-10T18:54:43.524Z,3.50
2019-04-10T18:57:26.152Z,3.50
2019-04-10T19:00:15.384Z,3.50
2019-04-10T19:06:36.768Z,3.50
2019-04-10T19:09:38.960Z,3.50
2019-04-10T19:12:48.727Z,3.50
2019-04-10T19:18:15.367Z,3.50
2019-04-10T19:20:46.924Z,3.50
2019-04-10T19:23:37.079Z,3.60
2019-04-10T19:26:23.149Z,3.60
2019-04-10T19:28:53.955Z,3.70
2019-04-10T19:34:47.615Z,3.80
2019-04-10T19:37:39.384Z,3.90
2019-04-10T19:40:23.536Z,3.90
2019-04-10T19:49:42.667Z,4.10
2019-04-10T19:52:24.592Z,4.10
2019-04-10T19:55:07.523Z,4.10
2019-04-10T19:57:53.336Z,4.10
2019-04-10T20:00:36.778Z,4.10
2019-04-10T20:03:19.554Z,4.10
2019-04-10T20:06:03.817Z,4.20
2019-04-10T20:08:46.039Z,4.20
2019-04-10T20:11:37.350Z,4.20
2019-04-10T20:14:14.206Z,4.20
2019-04-10T20:17:15.698Z,4.20
2019-04-10T20:23:46.363Z,4.20
2019-04-10T20:26:07.486Z,4.10
2019-04-10T20:29:09.152Z,4.10
2019-04-10T20:31:53.339Z,4.10
2019-04-10T20:34:36.005Z,4.00
2019-04-10T20:40:03.368Z,4.00
2019-04-10T20:42:46.582Z,3.80
2019-04-10T20:45:31.748Z,3.80
2019-04-10T20:48:14.112Z,3.80
2019-04-10T20:51:16.524Z,3.70
2019-04-10T20:54:18.939Z,3.80
2019-04-10T20:57:01.771Z,3.80
2019-04-10T21:02:28.522Z,3.80
2019-04-10T21:08:01.985Z,3.80
2019-04-10T21:10:45.016Z,3.80
2019-04-10T21:13:54.398Z,3.80
2019-04-10T21:16:36.227Z,3.80
2019-04-10T21:19:18.873Z,3.70
2019-04-10T21:22:01.658Z,3.70
2019-04-10T21:24:43.935Z,3.70
2019-04-10T21:27:26.591Z,3.70
2019-04-10T21:33:40.807Z,3.70
2019-04-10T21:39:54.588Z,3.80
2019-04-10T21:42:37.085Z,3.90
2019-04-10T21:45:20.148Z,3.90
2019-04-10T21:50:51.779Z,3.80
2019-04-10T21:53:35.955Z,3.80
2019-04-10T21:56:20.244Z,3.80
2019-04-10T21:58:51.379Z,3.70
2019-04-10T22:05:16.424Z,3.80
2019-04-10T22:10:57.448Z,3.80
2019-04-10T22:13:40.096Z,3.70
2019-04-10T22:16:22.072Z,3.70
2019-04-10T22:19:05.855Z,3.80
2019-04-10T22:21:48.177Z,3.70
2019-04-10T22:24:30.123Z,3.60
2019-04-10T22:27:12.383Z,3.70
2019-04-10T22:29:54.999Z,3.60
2019-04-10T22:32:38.777Z,3.60
2019-04-10T22:38:05.211Z,3.60
2019-04-10T22:40:48.286Z,3.60
2019-04-10T22:43:30.351Z,3.60
2019-04-10T22:48:57.711Z,3.60
2019-04-10T22:51:40.479Z,3.60
2019-04-10T22:54:22.373Z,3.60
2019-04-10T23:03:54.947Z,3.70
2019-04-10T23:06:56.047Z,3.60
2019-04-10T23:09:38.804Z,3.60
2019-04-10T23:12:20.675Z,3.60
2019-04-10T23:15:03.119Z,3.70
2019-04-10T23:20:30.023Z,3.60
2019-04-10T23:25:52.961Z,3.60
2019-04-10T23:28:35.735Z,3.50
2019-04-10T23:31:21.592Z,3.50
2019-04-10T23:34:04.192Z,3.40
2019-04-10T23:36:46.578Z,3.40
2019-04-10T23:39:30.317Z,3.40
2019-04-10T23:42:12.850Z,3.30
2019-04-10T23:44:43.363Z,3.40
2019-04-10T23:53:30.801Z,3.50
2019-04-10T23:56:16.145Z,3.50
2019-04-10T23:58:48.065Z,3.50
